sensor_id;sensor_type;location;lat;lon;timestamp;temperature;humidity
15040;DHT22;7617;47.366;8.558;2024-03-23T00:52:13;13.30;97.90
15040;DHT22;7617;47.366;8.558;2024-03-23T00:54:40;13.30;99.90
15040;DHT22;7617;47.366;8.558;2024-03-23T00:57:06;13.50;99.90
15040;DHT22;7617;47.366;8.558;2024-03-23T01:02:01;14.00;99.90
15040;DHT22;7617;47.366;8.558;2024-03-23T01:04:28;13.50;99.50
15040;DHT22;7617;47.366;8.558;2024-03-23T01:06:54;13.80;98.90
15040;DHT22;7617;47.366;8.558;2024-03-23T01:09:23;14.10;95.80
15040;DHT22;7617;47.366;8.558;2024-03-23T01:11:49;14.30;98.80
15040;DHT22;7617;47.366;8.558;2024-03-23T01:14:17;14.00;96.90
15040;DHT22;7617;47.366;8.558;2024-03-23T01:16:43;14.60;98.30
15040;DHT22;7617;47.366;8.558;2024-03-23T01:19:11;14.40;94.60
15040;DHT22;7617;47.366;8.558;2024-03-23T01:21:38;14.50;97.40
15040;DHT22;7617;47.366;8.558;2024-03-23T01:26:33;14.50;96.10
15040;DHT22;7617;47.366;8.558;2024-03-23T01:33:55;15.20;93.80
15040;DHT22;7617;47.366;8.558;2024-03-23T01:36:21;14.80;93.60
15040;DHT22;7617;47.366;8.558;2024-03-23T01:41:17;14.70;95.50
15040;DHT22;7617;47.366;8.558;2024-03-23T01:43:45;15.00;92.70
15040;DHT22;7617;47.366;8.558;2024-03-23T01:46:12;14.80;93.30
15040;DHT22;7617;47.366;8.558;2024-03-23T01:48:39;14.90;96.30
15040;DHT22;7617;47.366;8.558;2024-03-23T01:51:05;14.60;96.30
15040;DHT22;7617;47.366;8.558;2024-03-23T01:53:33;15.00;96.50
15040;DHT22;7617;47.366;8.558;2024-03-23T01:55:59;14.50;96.50
15040;DHT22;7617;47.366;8.558;2024-03-23T01:58:27;14.60;96.50
15040;DHT22;7617;47.366;8.558;2024-03-23T02:00:57;14.70;93.10
15040;DHT22;7617;47.366;8.558;2024-03-23T02:05:52;14.90;96.20
15040;DHT22;7617;47.366;8.558;2024-03-23T02:08:21;14.80;92.80
15040;DHT22;7617;47.366;8.558;2024-03-23T02:10:48;15.00;95.30
15040;DHT22;7617;47.366;8.558;2024-03-23T02:13:17;15.10;96.10
15040;DHT22;7617;47.366;8.558;2024-03-23T02:15:43;14.60;96.10
15040;DHT22;7617;47.366;8.558;2024-03-23T02:18:12;14.50;94.80
15040;DHT22;7617;47.366;8.558;2024-03-23T02:23:14;14.30;94.80
15040;DHT22;7617;47.366;8.558;2024-03-23T02:25:40;14.30;98.70
15040;DHT22;7617;47.366;8.558;2024-03-23T02:28:08;13.60;97.80
15040;DHT22;7617;47.366;8.558;2024-03-23T02:30:35;13.50;99.30
15040;DHT22;7617;47.366;8.558;2024-03-23T02:33:02;13.50;99.80
15040;DHT22;7617;47.366;8.558;2024-03-23T02:35:29;13.80;99.90
15040;DHT22;7617;47.366;8.558;2024-03-23T02:37:56;13.50;99.90
15040;DHT22;7617;47.366;8.558;2024-03-23T02:40:24;13.20;99.90
15040;DHT22;7617;47.366;8.558;2024-03-23T02:45:18;13.30;99.90
15040;DHT22;7617;47.366;8.558;2024-03-23T02:50:12;13.20;99.90
15040;DHT22;7617;47.366;8.558;2024-03-23T02:52:41;13.00;99.90
15040;DHT22;7617;47.366;8.558;2024-03-23T02:55:08;12.50;99.90
15040;DHT22;7617;47.366;8.558;2024-03-23T02:57:37;12.70;98.50
15040;DHT22;7617;47.366;8.558;2024-03-23T03:00:04;12.70;98.80
15040;DHT22;7617;47.366;8.558;2024-03-23T03:05:00;12.30;99.90
15040;DHT22;7617;47.366;8.558;2024-03-23T03:12:21;12.30;99.90
15040;DHT22;7617;47.366;8.558;2024-03-23T03:14:49;12.40;99.90
15040;DHT22;7617;47.366;8.558;2024-03-23T03:19:45;12.30;99.90
15040;DHT22;7617;47.366;8.558;2024-03-23T03:22:13;12.40;99.20
15040;DHT22;7617;47.366;8.558;2024-03-23T03:29:36;12.60;99.90
15040;DHT22;7617;47.366;8.558;2024-03-23T03:32:05;12.70;98.80
15040;DHT22;7617;47.366;8.558;2024-03-23T03:34:31;12.70;97.50
15040;DHT22;7617;47.366;8.558;2024-03-23T03:36:58;13.10;99.90
15040;DHT22;7617;47.366;8.558;2024-03-23T03:39:25;13.40;97.80
15040;DHT22;7617;47.366;8.558;2024-03-23T03:44:20;13.50;99.10
15040;DHT22;7617;47.366;8.558;2024-03-23T03:49:16;13.60;99.20
15040;DHT22;7617;47.366;8.558;2024-03-23T03:51:43;13.70;99.00
15040;DHT22;7617;47.366;8.558;2024-03-23T03:56:37;13.90;98.30
15040;DHT22;7617;47.366;8.558;2024-03-23T03:59:05;13.70;95.80
15040;DHT22;7617;47.366;8.558;2024-03-23T04:03:59;14.20;97.30
15040;DHT22;7617;47.366;8.558;2024-03-23T04:06:27;14.20;93.80
15040;DHT22;7617;47.366;8.558;2024-03-23T04:13:49;14.00;97.20
15040;DHT22;7617;47.366;8.558;2024-03-23T04:16:25;14.00;93.90
15040;DHT22;7617;47.366;8.558;2024-03-23T04:18:52;13.80;97.60
15040;DHT22;7617;47.366;8.558;2024-03-23T04:21:19;13.80;97.70
15040;DHT22;7617;47.366;8.558;2024-03-23T04:23:47;13.60;98.00
15040;DHT22;7617;47.366;8.558;2024-03-23T04:26:15;13.60;94.40
15040;DHT22;7617;47.366;8.558;2024-03-23T04:28:42;13.70;98.00
15040;DHT22;7617;47.366;8.558;2024-03-23T04:31:09;13.30;95.20
15040;DHT22;7617;47.366;8.558;2024-03-23T04:36:04;13.60;94.40
15040;DHT22;7617;47.366;8.558;2024-03-23T04:41:00;13.70;94.40
15040;DHT22;7617;47.366;8.558;2024-03-23T04:43:28;13.90;97.90
15040;DHT22;7617;47.366;8.558;2024-03-23T04:48:23;14.10;97.30
15040;DHT22;7617;47.366;8.558;2024-03-23T04:50:54;14.10;93.50
15040;DHT22;7617;47.366;8.558;2024-03-23T04:53:24;14.20;93.30
15040;DHT22;7617;47.366;8.558;2024-03-23T04:55:55;14.60;96.40
15040;DHT22;7617;47.366;8.558;2024-03-23T04:58:23;14.40;95.50
15040;DHT22;7617;47.366;8.558;2024-03-23T05:00:53;14.70;93.40
15040;DHT22;7617;47.366;8.558;2024-03-23T05:03:21;14.50;95.60
15040;DHT22;7617;47.366;8.558;2024-03-23T05:05:48;14.60;95.40
15040;DHT22;7617;47.366;8.558;2024-03-23T05:10:43;15.00;92.00
15040;DHT22;7617;47.366;8.558;2024-03-23T05:13:10;14.90;95.00
15040;DHT22;7617;47.366;8.558;2024-03-23T05:15:38;15.20;91.90
15040;DHT22;7617;47.366;8.558;2024-03-23T05:18:06;15.00;94.50
15040;DHT22;7617;47.366;8.558;2024-03-23T05:20:32;15.40;94.70
15040;DHT22;7617;47.366;8.558;2024-03-23T05:23:00;15.60;94.50
15040;DHT22;7617;47.366;8.558;2024-03-23T05:27:54;15.60;94.20
15040;DHT22;7617;47.366;8.558;2024-03-23T05:30:22;15.10;94.00
15040;DHT22;7617;47.366;8.558;2024-03-23T05:32:50;15.60;94.40
15040;DHT22;7617;47.366;8.558;2024-03-23T05:35:17;15.00;96.20
15040;DHT22;7617;47.366;8.558;2024-03-23T05:37:43;14.80;97.40
15040;DHT22;7617;47.366;8.558;2024-03-23T05:40:11;14.40;99.10
15040;DHT22;7617;47.366;8.558;2024-03-23T05:42:43;14.50;97.10
15040;DHT22;7617;47.366;8.558;2024-03-23T05:45:10;14.20;99.90
15040;DHT22;7617;47.366;8.558;2024-03-23T05:47:37;14.30;99.90
15040;DHT22;7617;47.366;8.558;2024-03-23T05:50:06;13.80;99.90
15040;DHT22;7617;47.366;8.558;2024-03-23T05:52:32;13.70;99.90
15040;DHT22;7617;47.366;8.558;2024-03-23T06:02:22;13.50;99.90
15040;DHT22;7617;47.366;8.558;2024-03-23T06:07:18;12.90;99.90
15040;DHT22;7617;47.366;8.558;2024-03-23T06:09:46;13.40;99.90
15040;DHT22;7617;47.366;8.558;2024-03-23T06:14:40;13.00;99.90
15040;DHT22;7617;47.366;8.558;2024-03-23T06:24:31;13.10;99.90
15040;DHT22;7617;47.366;8.558;2024-03-23T06:31:53;12.70;99.90
15040;DHT22;7617;47.366;8.558;2024-03-23T06:34:20;12.50;99.90
15040;DHT22;7617;47.366;8.558;2024-03-23T06:36:48;12.30;99.90
15040;DHT22;7617;47.366;8.558;2024-03-23T06:41:52;12.10;99.90
15040;DHT22;7617;47.366;8.558;2024-03-23T06:44:19;12.10;99.90
15040;DHT22;7617;47.366;8.558;2024-03-23T06:46:46;12.10;99.90
15040;DHT22;7617;47.366;8.558;2024-03-23T06:51:41;12.10;99.90
15040;DHT22;7617;47.366;8.558;2024-03-23T06:54:08;12.20;99.90
15040;DHT22;7617;47.366;8.558;2024-03-23T06:56:35;12.10;99.90
15040;DHT22;7617;47.366;8.558;2024-03-23T06:59:03;12.10;99.90
15040;DHT22;7617;47.366;8.558;2024-03-23T07:01:30;12.20;99.90
15040;DHT22;7617;47.366;8.558;2024-03-23T07:08:52;12.30;99.90
15040;DHT22;7617;47.366;8.558;2024-03-23T07:11:20;12.30;99.90
15040;DHT22;7617;47.366;8.558;2024-03-23T07:16:16;12.40;99.90
15040;DHT22;7617;47.366;8.558;2024-03-23T07:18:42;12.40;99.90
15040;DHT22;7617;47.366;8.558;2024-03-23T07:21:10;12.50;99.90
15040;DHT22;7617;47.366;8.558;2024-03-23T07:23:36;12.50;99.90
15040;DHT22;7617;47.366;8.558;2024-03-23T07:26:05;12.30;99.90
15040;DHT22;7617;47.366;8.558;2024-03-23T07:28:31;12.20;99.90
15040;DHT22;7617;47.366;8.558;2024-03-23T07:31:04;12.10;99.90
15040;DHT22;7617;47.366;8.558;2024-03-23T07:33:32;12.20;99.90
15040;DHT22;7617;47.366;8.558;2024-03-23T07:38:28;12.20;99.90
15040;DHT22;7617;47.366;8.558;2024-03-23T07:41:05;12.20;99.90
15040;DHT22;7617;47.366;8.558;2024-03-23T07:43:33;12.20;99.90
15040;DHT22;7617;47.366;8.558;2024-03-23T07:46:00;12.30;99.90
15040;DHT22;7617;47.366;8.558;2024-03-23T07:48:28;12.40;99.90
15040;DHT22;7617;47.366;8.558;2024-03-23T07:51:01;12.40;99.90
15040;DHT22;7617;47.366;8.558;2024-03-23T07:53:28;12.30;99.90
15040;DHT22;7617;47.366;8.558;2024-03-23T07:55:57;12.40;99.90
15040;DHT22;7617;47.366;8.558;2024-03-23T08:00:52;11.90;99.90
15040;DHT22;7617;47.366;8.558;2024-03-23T08:03:19;11.80;99.90
15040;DHT22;7617;47.366;8.558;2024-03-23T08:05:47;11.60;99.90
15040;DHT22;7617;47.366;8.558;2024-03-23T08:08:15;11.40;99.90
15040;DHT22;7617;47.366;8.558;2024-03-23T08:10:49;11.20;99.90
15040;DHT22;7617;47.366;8.558;2024-03-23T08:13:16;11.20;99.90
15040;DHT22;7617;47.366;8.558;2024-03-23T08:15:44;11.10;99.90
15040;DHT22;7617;47.366;8.558;2024-03-23T08:20:39;10.90;99.90
15040;DHT22;7617;47.366;8.558;2024-03-23T08:23:06;11.00;99.90
15040;DHT22;7617;47.366;8.558;2024-03-23T08:25:35;10.70;99.90
15040;DHT22;7617;47.366;8.558;2024-03-23T08:28:01;10.80;99.90
15040;DHT22;7617;47.366;8.558;2024-03-23T08:30:29;10.70;99.90
15040;DHT22;7617;47.366;8.558;2024-03-23T08:37:52;10.40;99.90
15040;DHT22;7617;47.366;8.558;2024-03-23T08:40:19;10.40;99.90
15040;DHT22;7617;47.366;8.558;2024-03-23T08:42:47;10.20;99.90
15040;DHT22;7617;47.366;8.558;2024-03-23T08:45:14;10.30;99.90
15040;DHT22;7617;47.366;8.558;2024-03-23T08:50:09;10.20;99.90
15040;DHT22;7617;47.366;8.558;2024-03-23T08:52:36;10.50;99.90
15040;DHT22;7617;47.366;8.558;2024-03-23T08:59:58;10.60;99.90
15040;DHT22;7617;47.366;8.558;2024-03-23T09:04:53;10.40;99.90
15040;DHT22;7617;47.366;8.558;2024-03-23T09:09:47;10.40;99.90
15040;DHT22;7617;47.366;8.558;2024-03-23T09:17:10;10.40;99.90
15040;DHT22;7617;47.366;8.558;2024-03-23T09:19:37;10.60;99.90
15040;DHT22;7617;47.366;8.558;2024-03-23T09:22:04;10.80;99.90
15040;DHT22;7617;47.366;8.558;2024-03-23T09:24:30;10.60;99.90
15040;DHT22;7617;47.366;8.558;2024-03-23T09:26:58;11.10;99.90
15040;DHT22;7617;47.366;8.558;2024-03-23T09:31:52;11.20;99.90
15040;DHT22;7617;47.366;8.558;2024-03-23T09:34:20;11.10;96.50
15040;DHT22;7617;47.366;8.558;2024-03-23T09:39:14;11.30;99.90
15040;DHT22;7617;47.366;8.558;2024-03-23T09:41:41;11.40;99.90
15040;DHT22;7617;47.366;8.558;2024-03-23T09:44:08;11.50;99.90
15040;DHT22;7617;47.366;8.558;2024-03-23T09:46:36;11.40;99.90
15040;DHT22;7617;47.366;8.558;2024-03-23T09:49:03;11.60;99.90
15040;DHT22;7617;47.366;8.558;2024-03-23T09:51:32;11.50;99.70
15040;DHT22;7617;47.366;8.558;2024-03-23T09:53:59;11.30;99.20
15040;DHT22;7617;47.366;8.558;2024-03-23T09:59:00;11.30;94.40
15040;DHT22;7617;47.366;8.558;2024-03-23T10:01:29;11.30;93.80
15040;DHT22;7617;47.366;8.558;2024-03-23T10:03:56;11.00;94.20
15040;DHT22;7617;47.366;8.558;2024-03-23T10:06:23;11.20;99.90
15040;DHT22;7617;47.366;8.558;2024-03-23T10:08:52;11.40;95.60
15040;DHT22;7617;47.366;8.558;2024-03-23T10:11:20;11.30;95.50
15040;DHT22;7617;47.366;8.558;2024-03-23T10:13:47;11.30;98.90
15040;DHT22;7617;47.366;8.558;2024-03-23T10:16:22;11.30;96.50
15040;DHT22;7617;47.366;8.558;2024-03-23T10:21:18;11.40;99.60
15040;DHT22;7617;47.366;8.558;2024-03-23T10:26:16;11.50;93.10
15040;DHT22;7617;47.366;8.558;2024-03-23T10:28:53;11.50;93.00
15040;DHT22;7617;47.366;8.558;2024-03-23T10:31:21;11.50;92.50
15040;DHT22;7617;47.366;8.558;2024-03-23T10:33:47;11.60;93.00
15040;DHT22;7617;47.366;8.558;2024-03-23T10:38:43;11.80;92.30
15040;DHT22;7617;47.366;8.558;2024-03-23T10:43:39;11.90;91.10
15040;DHT22;7617;47.366;8.558;2024-03-23T10:48:35;11.90;96.40
15040;DHT22;7617;47.366;8.558;2024-03-23T10:53:30;11.80;90.10
15040;DHT22;7617;47.366;8.558;2024-03-23T10:55:59;11.80;95.80
15040;DHT22;7617;47.366;8.558;2024-03-23T10:58:30;11.90;96.00
15040;DHT22;7617;47.366;8.558;2024-03-23T11:00:59;12.10;90.40
15040;DHT22;7617;47.366;8.558;2024-03-23T11:03:30;12.30;95.80
15040;DHT22;7617;47.366;8.558;2024-03-23T11:05:57;12.30;95.50
15040;DHT22;7617;47.366;8.558;2024-03-23T11:08:34;12.30;88.20
15040;DHT22;7617;47.366;8.558;2024-03-23T11:11:14;12.20;93.80
15040;DHT22;7617;47.366;8.558;2024-03-23T11:13:42;12.20;93.60
15040;DHT22;7617;47.366;8.558;2024-03-23T11:16:16;12.10;85.20
15040;DHT22;7617;47.366;8.558;2024-03-23T11:21:52;11.80;93.40
15040;DHT22;7617;47.366;8.558;2024-03-23T11:24:20;11.70;93.40
15040;DHT22;7617;47.366;8.558;2024-03-23T11:26:47;11.70;93.40
15040;DHT22;7617;47.366;8.558;2024-03-23T11:29:16;11.70;93.70
15040;DHT22;7617;47.366;8.558;2024-03-23T11:31:47;11.60;93.60
15040;DHT22;7617;47.366;8.558;2024-03-23T11:34:15;12.10;86.60
15040;DHT22;7617;47.366;8.558;2024-03-23T11:39:13;11.90;92.70
15040;DHT22;7617;47.366;8.558;2024-03-23T11:44:17;12.10;83.20
15040;DHT22;7617;47.366;8.558;2024-03-23T11:49:26;12.30;84.70
15040;DHT22;7617;47.366;8.558;2024-03-23T11:51:54;12.50;82.80
15040;DHT22;7617;47.366;8.558;2024-03-23T11:54:22;12.60;82.40
15040;DHT22;7617;47.366;8.558;2024-03-23T11:56:56;12.70;90.80
15040;DHT22;7617;47.366;8.558;2024-03-23T11:59:33;12.70;77.70
15040;DHT22;7617;47.366;8.558;2024-03-23T12:04:30;12.90;90.00
15040;DHT22;7617;47.366;8.558;2024-03-23T12:07:15;12.80;79.20
15040;DHT22;7617;47.366;8.558;2024-03-23T12:17:10;12.60;76.10
15040;DHT22;7617;47.366;8.558;2024-03-23T12:19:40;12.80;87.10
15040;DHT22;7617;47.366;8.558;2024-03-23T12:22:08;13.00;88.30
15040;DHT22;7617;47.366;8.558;2024-03-23T12:24:36;13.10;88.90
15040;DHT22;7617;47.366;8.558;2024-03-23T12:27:02;12.50;91.00
15040;DHT22;7617;47.366;8.558;2024-03-23T12:29:31;12.10;87.10
15040;DHT22;7617;47.366;8.558;2024-03-23T12:31:59;12.00;95.10
15040;DHT22;7617;47.366;8.558;2024-03-23T12:34:27;11.80;94.50
15040;DHT22;7617;47.366;8.558;2024-03-23T12:36:55;11.70;96.40
15040;DHT22;7617;47.366;8.558;2024-03-23T12:41:49;11.60;94.40
15040;DHT22;7617;47.366;8.558;2024-03-23T12:44:18;11.50;91.20
15040;DHT22;7617;47.366;8.558;2024-03-23T12:46:45;11.40;96.80
15040;DHT22;7617;47.366;8.558;2024-03-23T12:51:48;11.30;91.00
15040;DHT22;7617;47.366;8.558;2024-03-23T12:54:17;11.50;92.00
15040;DHT22;7617;47.366;8.558;2024-03-23T12:56:43;11.40;96.30
15040;DHT22;7617;47.366;8.558;2024-03-23T12:59:10;11.70;96.10
15040;DHT22;7617;47.366;8.558;2024-03-23T13:01:37;11.70;96.20
15040;DHT22;7617;47.366;8.558;2024-03-23T13:04:04;11.70;95.50
15040;DHT22;7617;47.366;8.558;2024-03-23T13:09:00;11.70;91.10
15040;DHT22;7617;47.366;8.558;2024-03-23T13:11:28;11.90;94.40
15040;DHT22;7617;47.366;8.558;2024-03-23T13:13:56;12.00;89.50
15040;DHT22;7617;47.366;8.558;2024-03-23T13:18:50;12.20;88.70
15040;DHT22;7617;47.366;8.558;2024-03-23T13:23:46;12.60;94.00
15040;DHT22;7617;47.366;8.558;2024-03-23T13:26:14;12.70;93.90
15040;DHT22;7617;47.366;8.558;2024-03-23T13:28:42;12.90;93.20
15040;DHT22;7617;47.366;8.558;2024-03-23T13:31:09;12.90;92.80
15040;DHT22;7617;47.366;8.558;2024-03-23T13:33:36;13.20;92.90
15040;DHT22;7617;47.366;8.558;2024-03-23T13:36:03;13.20;84.20
15040;DHT22;7617;47.366;8.558;2024-03-23T13:38:31;13.50;90.60
15040;DHT22;7617;47.366;8.558;2024-03-23T13:40:59;13.40;79.40
15040;DHT22;7617;47.366;8.558;2024-03-23T13:43:27;13.80;90.30
15040;DHT22;7617;47.366;8.558;2024-03-23T13:45:57;13.70;86.70
15040;DHT22;7617;47.366;8.558;2024-03-23T13:48:26;13.80;73.90
15040;DHT22;7617;47.366;8.558;2024-03-23T13:50:58;13.50;83.50
15040;DHT22;7617;47.366;8.558;2024-03-23T13:53:26;13.80;78.30
15040;DHT22;7617;47.366;8.558;2024-03-23T13:55:53;13.30;87.90
15040;DHT22;7617;47.366;8.558;2024-03-23T14:03:17;13.30;91.10
15040;DHT22;7617;47.366;8.558;2024-03-23T14:08:13;12.60;91.70
15040;DHT22;7617;47.366;8.558;2024-03-23T14:10:41;12.50;91.50
15040;DHT22;7617;47.366;8.558;2024-03-23T14:13:08;12.70;88.00
15040;DHT22;7617;47.366;8.558;2024-03-23T14:15:35;12.50;84.60
15040;DHT22;7617;47.366;8.558;2024-03-23T14:20:31;13.00;81.50
15040;DHT22;7617;47.366;8.558;2024-03-23T14:23:00;13.20;89.10
15040;DHT22;7617;47.366;8.558;2024-03-23T14:35:17;13.10;86.60
15040;DHT22;7617;47.366;8.558;2024-03-23T14:37:46;12.90;77.20
15040;DHT22;7617;47.366;8.558;2024-03-23T14:45:08;12.60;75.10
15040;DHT22;7617;47.366;8.558;2024-03-23T14:50:04;12.80;76.20
15040;DHT22;7617;47.366;8.558;2024-03-23T14:52:34;13.50;88.00
15040;DHT22;7617;47.366;8.558;2024-03-23T14:55:02;13.40;79.90
15040;DHT22;7617;47.366;8.558;2024-03-23T14:59:56;13.20;86.00
15040;DHT22;7617;47.366;8.558;2024-03-23T15:02:24;13.20;85.00
15040;DHT22;7617;47.366;8.558;2024-03-23T15:04:50;12.90;84.60
15040;DHT22;7617;47.366;8.558;2024-03-23T15:07:17;12.80;85.80
15040;DHT22;7617;47.366;8.558;2024-03-23T15:09:43;13.10;85.60
15040;DHT22;7617;47.366;8.558;2024-03-23T15:12:12;13.40;86.30
15040;DHT22;7617;47.366;8.558;2024-03-23T15:19:34;13.30;79.70
15040;DHT22;7617;47.366;8.558;2024-03-23T15:22:01;13.30;83.00
15040;DHT22;7617;47.366;8.558;2024-03-23T15:26:57;13.40;81.90
15040;DHT22;7617;47.366;8.558;2024-03-23T15:29:25;13.10;76.80
15040;DHT22;7617;47.366;8.558;2024-03-23T15:34:19;13.00;75.30
15040;DHT22;7617;47.366;8.558;2024-03-23T15:36:48;12.80;82.00
15040;DHT22;7617;47.366;8.558;2024-03-23T15:39:16;13.30;83.00
15040;DHT22;7617;47.366;8.558;2024-03-23T15:41:44;12.70;82.70
15040;DHT22;7617;47.366;8.558;2024-03-23T15:44:10;13.00;83.10
15040;DHT22;7617;47.366;8.558;2024-03-23T15:46:39;12.70;82.90
15040;DHT22;7617;47.366;8.558;2024-03-23T15:49:05;12.80;75.00
15040;DHT22;7617;47.366;8.558;2024-03-23T15:51:33;12.80;73.40
15040;DHT22;7617;47.366;8.558;2024-03-23T15:54:01;13.20;83.80
15040;DHT22;7617;47.366;8.558;2024-03-23T16:04:00;13.30;79.50
15040;DHT22;7617;47.366;8.558;2024-03-23T16:11:22;12.90;81.90
15040;DHT22;7617;47.366;8.558;2024-03-23T16:13:48;12.90;81.80
15040;DHT22;7617;47.366;8.558;2024-03-23T16:18:42;12.80;78.40
15040;DHT22;7617;47.366;8.558;2024-03-23T16:21:12;12.90;80.60
15040;DHT22;7617;47.366;8.558;2024-03-23T16:26:07;12.90;68.10
15040;DHT22;7617;47.366;8.558;2024-03-23T16:28:35;12.90;79.70
15040;DHT22;7617;47.366;8.558;2024-03-23T16:31:04;12.90;67.40
15040;DHT22;7617;47.366;8.558;2024-03-23T16:33:33;13.00;78.80
15040;DHT22;7617;47.366;8.558;2024-03-23T16:36:01;12.80;78.60
15040;DHT22;7617;47.366;8.558;2024-03-23T16:38:29;12.90;78.30
15040;DHT22;7617;47.366;8.558;2024-03-23T16:40:59;12.70;65.60
15040;DHT22;7617;47.366;8.558;2024-03-23T16:43:27;12.70;70.60
15040;DHT22;7617;47.366;8.558;2024-03-23T16:45:56;12.70;79.10
15040;DHT22;7617;47.366;8.558;2024-03-23T16:48:23;12.60;78.80
15040;DHT22;7617;47.366;8.558;2024-03-23T16:50:51;12.60;65.20
15040;DHT22;7617;47.366;8.558;2024-03-23T16:53:18;12.60;79.10
15040;DHT22;7617;47.366;8.558;2024-03-23T16:55:47;12.70;69.90
15040;DHT22;7617;47.366;8.558;2024-03-23T16:58:20;12.50;79.40
15040;DHT22;7617;47.366;8.558;2024-03-23T17:03:14;12.50;82.90
15040;DHT22;7617;47.366;8.558;2024-03-23T17:08:10;12.20;84.10
15040;DHT22;7617;47.366;8.558;2024-03-23T17:10:37;11.80;88.70
15040;DHT22;7617;47.366;8.558;2024-03-23T17:13:05;11.60;75.50
15040;DHT22;7617;47.366;8.558;2024-03-23T17:15:33;11.40;90.20
15040;DHT22;7617;47.366;8.558;2024-03-23T17:20:27;11.60;91.00
15040;DHT22;7617;47.366;8.558;2024-03-23T17:27:49;11.20;91.80
15040;DHT22;7617;47.366;8.558;2024-03-23T17:30:18;11.20;80.40
15040;DHT22;7617;47.366;8.558;2024-03-23T17:35:12;11.10;93.00
15040;DHT22;7617;47.366;8.558;2024-03-23T17:37:40;11.10;91.50
15040;DHT22;7617;47.366;8.558;2024-03-23T17:40:08;10.90;85.30
15040;DHT22;7617;47.366;8.558;2024-03-23T17:42:36;11.00;91.80
15040;DHT22;7617;47.366;8.558;2024-03-23T17:45:06;10.90;92.00
15040;DHT22;7617;47.366;8.558;2024-03-23T17:47:38;10.90;79.10
15040;DHT22;7617;47.366;8.558;2024-03-23T17:50:07;10.60;79.20
15040;DHT22;7617;47.366;8.558;2024-03-23T17:52:34;10.80;91.80
15040;DHT22;7617;47.366;8.558;2024-03-23T17:55:02;10.80;85.20
15040;DHT22;7617;47.366;8.558;2024-03-23T18:02:24;10.70;92.30
15040;DHT22;7617;47.366;8.558;2024-03-23T18:04:52;10.60;85.20
15040;DHT22;7617;47.366;8.558;2024-03-23T18:09:48;10.30;96.10
15040;DHT22;7617;47.366;8.558;2024-03-23T18:12:15;10.30;96.10
15040;DHT22;7617;47.366;8.558;2024-03-23T18:17:09;10.00;96.80
15040;DHT22;7617;47.366;8.558;2024-03-23T18:19:37;10.20;97.20
15040;DHT22;7617;47.366;8.558;2024-03-23T18:22:05;10.20;97.50
15040;DHT22;7617;47.366;8.558;2024-03-23T18:24:32;10.00;90.30
15040;DHT22;7617;47.366;8.558;2024-03-23T18:26:59;9.90;98.10
15040;DHT22;7617;47.366;8.558;2024-03-23T18:29:27;10.20;99.90
15040;DHT22;7617;47.366;8.558;2024-03-23T18:34:21;9.90;99.30
15040;DHT22;7617;47.366;8.558;2024-03-23T18:36:47;9.50;99.90
15040;DHT22;7617;47.366;8.558;2024-03-23T18:39:17;9.30;99.90
15040;DHT22;7617;47.366;8.558;2024-03-23T18:46:38;8.10;99.90
15040;DHT22;7617;47.366;8.558;2024-03-23T18:49:06;7.70;99.90
15040;DHT22;7617;47.366;8.558;2024-03-23T18:53:59;7.20;99.90
15040;DHT22;7617;47.366;8.558;2024-03-23T18:58:56;7.30;99.90
15040;DHT22;7617;47.366;8.558;2024-03-23T19:01:22;7.80;99.90
15040;DHT22;7617;47.366;8.558;2024-03-23T19:03:50;7.80;99.90
15040;DHT22;7617;47.366;8.558;2024-03-23T19:06:16;7.70;99.90
15040;DHT22;7617;47.366;8.558;2024-03-23T19:11:10;7.90;99.90
15040;DHT22;7617;47.366;8.558;2024-03-23T19:13:39;7.70;99.90
15040;DHT22;7617;47.366;8.558;2024-03-23T19:16:05;7.60;99.90
15040;DHT22;7617;47.366;8.558;2024-03-23T19:28:29;7.80;99.90
15040;DHT22;7617;47.366;8.558;2024-03-23T19:30:57;8.00;99.90
15040;DHT22;7617;47.366;8.558;2024-03-23T19:35:57;7.80;99.90
15040;DHT22;7617;47.366;8.558;2024-03-23T19:40:53;8.00;99.90
15040;DHT22;7617;47.366;8.558;2024-03-23T19:45:47;8.30;99.90
15040;DHT22;7617;47.366;8.558;2024-03-23T19:48:15;8.10;99.90
15040;DHT22;7617;47.366;8.558;2024-03-23T19:50:42;8.30;99.90
15040;DHT22;7617;47.366;8.558;2024-03-23T19:55:36;8.40;99.90
15040;DHT22;7617;47.366;8.558;2024-03-23T19:58:04;8.50;99.90
15040;DHT22;7617;47.366;8.558;2024-03-23T20:02:59;8.20;99.90
15040;DHT22;7617;47.366;8.558;2024-03-23T20:05:31;8.40;99.90
15040;DHT22;7617;47.366;8.558;2024-03-23T20:08:03;8.30;99.90
15040;DHT22;7617;47.366;8.558;2024-03-23T20:10:30;8.20;99.90
15040;DHT22;7617;47.366;8.558;2024-03-23T20:12:57;8.30;99.90
15040;DHT22;7617;47.366;8.558;2024-03-23T20:17:51;8.30;99.90
15040;DHT22;7617;47.366;8.558;2024-03-23T20:22:48;8.40;99.90
15040;DHT22;7617;47.366;8.558;2024-03-23T20:25:15;8.50;99.90
15040;DHT22;7617;47.366;8.558;2024-03-23T20:32:37;8.60;99.90
15040;DHT22;7617;47.366;8.558;2024-03-23T20:35:05;8.70;99.90
15040;DHT22;7617;47.366;8.558;2024-03-23T20:40:01;8.70;99.80
15040;DHT22;7617;47.366;8.558;2024-03-23T20:42:29;8.80;99.90
15040;DHT22;7617;47.366;8.558;2024-03-23T20:49:52;8.70;99.90
15040;DHT22;7617;47.366;8.558;2024-03-23T20:52:19;8.60;99.90
15040;DHT22;7617;47.366;8.558;2024-03-23T20:57:14;8.30;99.90
15040;DHT22;7617;47.366;8.558;2024-03-23T20:59:42;8.10;99.90
15040;DHT22;7617;47.366;8.558;2024-03-23T21:02:10;8.00;99.90
15040;DHT22;7617;47.366;8.558;2024-03-23T21:07:05;7.50;99.90
15040;DHT22;7617;47.366;8.558;2024-03-23T21:09:32;7.70;99.90
15040;DHT22;7617;47.366;8.558;2024-03-23T21:11:59;7.70;99.90
15040;DHT22;7617;47.366;8.558;2024-03-23T21:14:28;7.80;99.90
15040;DHT22;7617;47.366;8.558;2024-03-23T21:16:54;8.00;99.90
15040;DHT22;7617;47.366;8.558;2024-03-23T21:21:48;8.20;99.90
15040;DHT22;7617;47.366;8.558;2024-03-23T21:24:15;8.00;99.90
15040;DHT22;7617;47.366;8.558;2024-03-23T21:29:09;7.70;99.90
15040;DHT22;7617;47.366;8.558;2024-03-23T21:31:38;7.60;99.90
15040;DHT22;7617;47.366;8.558;2024-03-23T21:34:05;7.60;99.90
15040;DHT22;7617;47.366;8.558;2024-03-23T21:38:59;7.80;99.90
15040;DHT22;7617;47.366;8.558;2024-03-23T21:46:21;7.30;99.90
15040;DHT22;7617;47.366;8.558;2024-03-23T21:51:17;7.50;99.90
15040;DHT22;7617;47.366;8.558;2024-03-23T21:53:45;7.50;99.90
15040;DHT22;7617;47.366;8.558;2024-03-23T22:03:34;7.30;99.90
15040;DHT22;7617;47.366;8.558;2024-03-23T22:06:02;7.40;99.90
15040;DHT22;7617;47.366;8.558;2024-03-23T22:08:30;7.60;99.90
15040;DHT22;7617;47.366;8.558;2024-03-23T22:10:58;7.70;99.90
15040;DHT22;7617;47.366;8.558;2024-03-23T22:13:25;7.70;99.90
15040;DHT22;7617;47.366;8.558;2024-03-23T22:15:56;7.40;99.90
15040;DHT22;7617;47.366;8.558;2024-03-23T22:18:24;7.60;99.90
15040;DHT22;7617;47.366;8.558;2024-03-23T22:20:55;7.50;99.90
15040;DHT22;7617;47.366;8.558;2024-03-23T22:23:24;7.40;99.90
15040;DHT22;7617;47.366;8.558;2024-03-23T22:25:51;7.30;99.90
15040;DHT22;7617;47.366;8.558;2024-03-23T22:30:53;7.30;99.90
15040;DHT22;7617;47.366;8.558;2024-03-23T22:35:48;7.60;99.90
15040;DHT22;7617;47.366;8.558;2024-03-23T22:40:54;7.70;99.90